sensor_id;sensor_type;location;lat;lon;timestamp;P1;durP1;ratioP1;P2;durP2;ratioP2
18142;SDS011;9197;50.930;3.140;2023-04-07T00:01:08;13.87;;;8.80;;
18142;SDS011;9197;50.930;3.140;2023-04-07T00:03:36;12.33;;;9.17;;
18142;SDS011;9197;50.930;3.140;2023-04-07T00:06:05;9.27;;;8.17;;
18142;SDS011;9197;50.930;3.140;2023-04-07T00:08:32;9.10;;;8.20;;
18142;SDS011;9197;50.930;3.140;2023-04-07T00:10:59;11.20;;;9.17;;
18142;SDS011;9197;50.930;3.140;2023-04-07T00:13:26;12.17;;;8.77;;
18142;SDS011;9197;50.930;3.140;2023-04-07T00:15:53;9.70;;;8.67;;
18142;SDS011;9197;50.930;3.140;2023-04-07T00:18:22;9.90;;;9.00;;
18142;SDS011;9197;50.930;3.140;2023-04-07T00:20:49;11.93;;;10.40;;
18142;SDS011;9197;50.930;3.140;2023-04-07T00:23:16;11.70;;;9.30;;
18142;SDS011;9197;50.930;3.140;2023-04-07T00:25:43;14.00;;;9.83;;
18142;SDS011;9197;50.930;3.140;2023-04-07T00:28:11;13.10;;;9.73;;
18142;SDS011;9197;50.930;3.140;2023-04-07T00:30:38;11.63;;;9.83;;
18142;SDS011;9197;50.930;3.140;2023-04-07T00:33:05;17.57;;;10.97;;
18142;SDS011;9197;50.930;3.140;2023-04-07T00:35:33;13.03;;;10.20;;
18142;SDS011;9197;50.930;3.140;2023-04-07T00:38:01;17.50;;;10.90;;
18142;SDS011;9197;50.930;3.140;2023-04-07T00:40:28;14.00;;;10.80;;
18142;SDS011;9197;50.930;3.140;2023-04-07T00:42:55;14.13;;;11.00;;
18142;SDS011;9197;50.930;3.140;2023-04-07T00:45:23;14.27;;;9.93;;
18142;SDS011;9197;50.930;3.140;2023-04-07T00:47:50;14.37;;;11.27;;
18142;SDS011;9197;50.930;3.140;2023-04-07T00:50:17;17.23;;;11.60;;
18142;SDS011;9197;50.930;3.140;2023-04-07T00:52:46;15.07;;;10.13;;
18142;SDS011;9197;50.930;3.140;2023-04-07T00:55:13;11.97;;;8.73;;
18142;SDS011;9197;50.930;3.140;2023-04-07T00:57:40;11.67;;;8.90;;
18142;SDS011;9197;50.930;3.140;2023-04-07T01:00:08;14.37;;;9.10;;
18142;SDS011;9197;50.930;3.140;2023-04-07T01:02:36;10.40;;;8.50;;
18142;SDS011;9197;50.930;3.140;2023-04-07T01:05:07;10.60;;;8.90;;
18142;SDS011;9197;50.930;3.140;2023-04-07T01:07:38;11.00;;;9.77;;
18142;SDS011;9197;50.930;3.140;2023-04-07T01:10:08;13.67;;;9.77;;
18142;SDS011;9197;50.930;3.140;2023-04-07T01:12:38;9.47;;;8.47;;
18142;SDS011;9197;50.930;3.140;2023-04-07T01:15:11;10.20;;;9.00;;
18142;SDS011;9197;50.930;3.140;2023-04-07T01:17:40;9.60;;;7.93;;
18142;SDS011;9197;50.930;3.140;2023-04-07T01:20:09;12.57;;;9.07;;
18142;SDS011;9197;50.930;3.140;2023-04-07T01:22:39;10.87;;;8.03;;
18142;SDS011;9197;50.930;3.140;2023-04-07T01:27:57;10.10;;;8.27;;
18142;SDS011;9197;50.930;3.140;2023-04-07T01:30:26;7.17;;;6.47;;
18142;SDS011;9197;50.930;3.140;2023-04-07T01:32:55;10.93;;;6.47;;
18142;SDS011;9197;50.930;3.140;2023-04-07T01:35:24;9.93;;;7.13;;
18142;SDS011;9197;50.930;3.140;2023-04-07T01:37:52;7.20;;;6.07;;
18142;SDS011;9197;50.930;3.140;2023-04-07T01:40:20;7.87;;;6.10;;
18142;SDS011;9197;50.930;3.140;2023-04-07T01:42:48;11.17;;;7.03;;
18142;SDS011;9197;50.930;3.140;2023-04-07T01:45:16;9.17;;;5.87;;
18142;SDS011;9197;50.930;3.140;2023-04-07T01:47:45;10.67;;;6.03;;
18142;SDS011;9197;50.930;3.140;2023-04-07T01:50:12;7.83;;;6.13;;
18142;SDS011;9197;50.930;3.140;2023-04-07T01:52:39;8.07;;;5.37;;
18142;SDS011;9197;50.930;3.140;2023-04-07T01:55:07;8.90;;;5.77;;
18142;SDS011;9197;50.930;3.140;2023-04-07T01:57:34;8.73;;;5.90;;
18142;SDS011;9197;50.930;3.140;2023-04-07T02:00:02;7.67;;;5.90;;
18142;SDS011;9197;50.930;3.140;2023-04-07T02:02:29;12.10;;;6.63;;
18142;SDS011;9197;50.930;3.140;2023-04-07T02:04:59;10.33;;;7.40;;
18142;SDS011;9197;50.930;3.140;2023-04-07T02:07:31;13.83;;;9.37;;
18142;SDS011;9197;50.930;3.140;2023-04-07T02:09:59;16.70;;;11.27;;
18142;SDS011;9197;50.930;3.140;2023-04-07T02:12:28;18.33;;;10.87;;
18142;SDS011;9197;50.930;3.140;2023-04-07T02:14:57;23.50;;;13.37;;
18142;SDS011;9197;50.930;3.140;2023-04-07T02:17:24;25.77;;;15.20;;
18142;SDS011;9197;50.930;3.140;2023-04-07T02:19:53;27.00;;;18.17;;
18142;SDS011;9197;50.930;3.140;2023-04-07T02:22:23;39.17;;;24.37;;
18142;SDS011;9197;50.930;3.140;2023-04-07T02:24:51;55.07;;;34.07;;
18142;SDS011;9197;50.930;3.140;2023-04-07T02:27:18;68.90;;;37.37;;
18142;SDS011;9197;50.930;3.140;2023-04-07T02:29:45;70.20;;;38.50;;
18142;SDS011;9197;50.930;3.140;2023-04-07T02:32:12;46.53;;;30.33;;
18142;SDS011;9197;50.930;3.140;2023-04-07T02:34:42;39.27;;;25.33;;
18142;SDS011;9197;50.930;3.140;2023-04-07T02:37:09;28.53;;;19.90;;
18142;SDS011;9197;50.930;3.140;2023-04-07T02:39:37;27.83;;;19.30;;
18142;SDS011;9197;50.930;3.140;2023-04-07T02:42:04;17.43;;;15.40;;
18142;SDS011;9197;50.930;3.140;2023-04-07T02:44:32;24.47;;;15.00;;
18142;SDS011;9197;50.930;3.140;2023-04-07T02:46:59;23.20;;;14.90;;
18142;SDS011;9197;50.930;3.140;2023-04-07T02:49:26;19.20;;;15.07;;
18142;SDS011;9197;50.930;3.140;2023-04-07T02:51:53;19.77;;;13.77;;
18142;SDS011;9197;50.930;3.140;2023-04-07T02:54:20;21.20;;;14.87;;
18142;SDS011;9197;50.930;3.140;2023-04-07T02:56:49;19.50;;;15.53;;
18142;SDS011;9197;50.930;3.140;2023-04-07T02:59:16;20.73;;;16.13;;
18142;SDS011;9197;50.930;3.140;2023-04-07T03:01:43;20.03;;;15.07;;
18142;SDS011;9197;50.930;3.140;2023-04-07T03:04:10;22.20;;;16.33;;
18142;SDS011;9197;50.930;3.140;2023-04-07T03:06:38;19.13;;;15.73;;
18142;SDS011;9197;50.930;3.140;2023-04-07T03:09:05;28.10;;;17.90;;
18142;SDS011;9197;50.930;3.140;2023-04-07T03:11:32;24.73;;;18.17;;
18142;SDS011;9197;50.930;3.140;2023-04-07T03:14:01;23.50;;;17.43;;
18142;SDS011;9197;50.930;3.140;2023-04-07T03:16:28;22.00;;;17.40;;
18142;SDS011;9197;50.930;3.140;2023-04-07T03:18:55;27.47;;;18.30;;
18142;SDS011;9197;50.930;3.140;2023-04-07T03:21:22;24.40;;;17.70;;
18142;SDS011;9197;50.930;3.140;2023-04-07T03:23:49;30.13;;;18.97;;
18142;SDS011;9197;50.930;3.140;2023-04-07T03:26:17;25.67;;;18.53;;
18142;SDS011;9197;50.930;3.140;2023-04-07T03:28:44;25.70;;;19.77;;
18142;SDS011;9197;50.930;3.140;2023-04-07T03:31:12;26.23;;;19.60;;
18142;SDS011;9197;50.930;3.140;2023-04-07T03:33:40;21.97;;;19.60;;
18142;SDS011;9197;50.930;3.140;2023-04-07T03:36:07;28.90;;;20.23;;
18142;SDS011;9197;50.930;3.140;2023-04-07T03:38:34;30.87;;;20.53;;
18142;SDS011;9197;50.930;3.140;2023-04-07T03:41:01;31.13;;;20.37;;
18142;SDS011;9197;50.930;3.140;2023-04-07T03:43:28;28.30;;;20.53;;
18142;SDS011;9197;50.930;3.140;2023-04-07T03:45:56;26.17;;;19.63;;
18142;SDS011;9197;50.930;3.140;2023-04-07T03:48:24;27.97;;;18.60;;
18142;SDS011;9197;50.930;3.140;2023-04-07T03:50:52;25.87;;;19.43;;
18142;SDS011;9197;50.930;3.140;2023-04-07T03:53:19;29.03;;;20.93;;
18142;SDS011;9197;50.930;3.140;2023-04-07T03:55:46;27.27;;;17.17;;
18142;SDS011;9197;50.930;3.140;2023-04-07T03:58:13;25.63;;;17.40;;
18142;SDS011;9197;50.930;3.140;2023-04-07T04:00:40;23.77;;;18.00;;
18142;SDS011;9197;50.930;3.140;2023-04-07T04:03:08;28.90;;;18.53;;
18142;SDS011;9197;50.930;3.140;2023-04-07T04:05:37;28.10;;;17.60;;
18142;SDS011;9197;50.930;3.140;2023-04-07T04:08:05;26.43;;;17.10;;
18142;SDS011;9197;50.930;3.140;2023-04-07T04:10:32;26.63;;;18.90;;
18142;SDS011;9197;50.930;3.140;2023-04-07T04:12:59;23.57;;;16.23;;
18142;SDS011;9197;50.930;3.140;2023-04-07T04:15:28;22.73;;;16.57;;
18142;SDS011;9197;50.930;3.140;2023-04-07T04:17:55;27.00;;;16.87;;
18142;SDS011;9197;50.930;3.140;2023-04-07T04:20:22;20.27;;;14.93;;
18142;SDS011;9197;50.930;3.140;2023-04-07T04:22:51;23.73;;;17.63;;
18142;SDS011;9197;50.930;3.140;2023-04-07T04:25:18;24.37;;;15.60;;
18142;SDS011;9197;50.930;3.140;2023-04-07T04:27:45;28.27;;;17.10;;
18142;SDS011;9197;50.930;3.140;2023-04-07T04:30:13;26.23;;;18.40;;
18142;SDS011;9197;50.930;3.140;2023-04-07T04:32:40;38.57;;;25.23;;
18142;SDS011;9197;50.930;3.140;2023-04-07T04:35:08;38.33;;;24.33;;
18142;SDS011;9197;50.930;3.140;2023-04-07T04:37:35;28.67;;;17.83;;
18142;SDS011;9197;50.930;3.140;2023-04-07T04:40:04;20.93;;;15.87;;
18142;SDS011;9197;50.930;3.140;2023-04-07T04:42:32;19.23;;;14.40;;
18142;SDS011;9197;50.930;3.140;2023-04-07T04:44:59;20.27;;;14.87;;
18142;SDS011;9197;50.930;3.140;2023-04-07T04:47:27;32.57;;;13.83;;
18142;SDS011;9197;50.930;3.140;2023-04-07T04:49:54;18.23;;;13.00;;
18142;SDS011;9197;50.930;3.140;2023-04-07T04:52:21;24.23;;;15.07;;
18142;SDS011;9197;50.930;3.140;2023-04-07T04:54:49;30.17;;;15.43;;
18142;SDS011;9197;50.930;3.140;2023-04-07T04:57:17;19.87;;;14.67;;
18142;SDS011;9197;50.930;3.140;2023-04-07T04:59:44;25.37;;;14.83;;
18142;SDS011;9197;50.930;3.140;2023-04-07T05:02:12;18.57;;;13.77;;
18142;SDS011;9197;50.930;3.140;2023-04-07T05:04:39;23.53;;;12.93;;
18142;SDS011;9197;50.930;3.140;2023-04-07T05:07:06;22.27;;;13.30;;
18142;SDS011;9197;50.930;3.140;2023-04-07T05:09:33;16.53;;;12.80;;
18142;SDS011;9197;50.930;3.140;2023-04-07T05:12:00;20.97;;;11.13;;
18142;SDS011;9197;50.930;3.140;2023-04-07T05:14:29;20.33;;;13.83;;
18142;SDS011;9197;50.930;3.140;2023-04-07T05:16:56;17.10;;;11.30;;
18142;SDS011;9197;50.930;3.140;2023-04-07T05:19:25;17.33;;;11.90;;
18142;SDS011;9197;50.930;3.140;2023-04-07T05:21:53;17.90;;;11.60;;
18142;SDS011;9197;50.930;3.140;2023-04-07T05:24:21;19.23;;;11.10;;
18142;SDS011;9197;50.930;3.140;2023-04-07T05:26:48;17.67;;;11.07;;
18142;SDS011;9197;50.930;3.140;2023-04-07T05:29:15;18.33;;;11.10;;
18142;SDS011;9197;50.930;3.140;2023-04-07T05:31:43;16.83;;;11.03;;
18142;SDS011;9197;50.930;3.140;2023-04-07T05:34:11;16.33;;;11.00;;
18142;SDS011;9197;50.930;3.140;2023-04-07T05:36:38;19.37;;;10.03;;
18142;SDS011;9197;50.930;3.140;2023-04-07T05:39:05;14.83;;;9.93;;
18142;SDS011;9197;50.930;3.140;2023-04-07T05:41:32;16.07;;;9.67;;
18142;SDS011;9197;50.930;3.140;2023-04-07T05:44:00;15.47;;;9.03;;
18142;SDS011;9197;50.930;3.140;2023-04-07T05:46:27;20.57;;;9.10;;
18142;SDS011;9197;50.930;3.140;2023-04-07T05:48:56;15.17;;;8.93;;
18142;SDS011;9197;50.930;3.140;2023-04-07T05:51:23;16.80;;;9.50;;
18142;SDS011;9197;50.930;3.140;2023-04-07T05:53:50;9.53;;;7.53;;
18142;SDS011;9197;50.930;3.140;2023-04-07T05:56:18;17.40;;;10.30;;
18142;SDS011;9197;50.930;3.140;2023-04-07T05:58:45;12.50;;;8.70;;
18142;SDS011;9197;50.930;3.140;2023-04-07T06:01:12;10.67;;;8.37;;
18142;SDS011;9197;50.930;3.140;2023-04-07T06:03:39;13.20;;;8.83;;
18142;SDS011;9197;50.930;3.140;2023-04-07T06:06:08;12.53;;;9.47;;
18142;SDS011;9197;50.930;3.140;2023-04-07T06:08:35;16.20;;;8.70;;
18142;SDS011;9197;50.930;3.140;2023-04-07T06:11:03;15.37;;;9.30;;
18142;SDS011;9197;50.930;3.140;2023-04-07T06:13:30;17.57;;;9.03;;
18142;SDS011;9197;50.930;3.140;2023-04-07T06:15:57;18.03;;;10.83;;
18142;SDS011;9197;50.930;3.140;2023-04-07T06:18:24;14.50;;;11.10;;
18142;SDS011;9197;50.930;3.140;2023-04-07T06:20:51;14.10;;;8.97;;
18142;SDS011;9197;50.930;3.140;2023-04-07T06:23:20;12.30;;;8.60;;
18142;SDS011;9197;50.930;3.140;2023-04-07T06:25:47;18.67;;;8.47;;
18142;SDS011;9197;50.930;3.140;2023-04-07T06:28:16;13.37;;;8.03;;
18142;SDS011;9197;50.930;3.140;2023-04-07T06:30:43;14.57;;;8.60;;
18142;SDS011;9197;50.930;3.140;2023-04-07T06:33:10;12.30;;;8.00;;
18142;SDS011;9197;50.930;3.140;2023-04-07T06:35:38;12.47;;;8.77;;
18142;SDS011;9197;50.930;3.140;2023-04-07T06:38:05;13.07;;;9.03;;
18142;SDS011;9197;50.930;3.140;2023-04-07T06:40:34;14.13;;;8.57;;
18142;SDS011;9197;50.930;3.140;2023-04-07T06:43:04;13.90;;;8.57;;
18142;SDS011;9197;50.930;3.140;2023-04-07T06:45:31;9.30;;;8.07;;
18142;SDS011;9197;50.930;3.140;2023-04-07T06:47:58;10.73;;;8.87;;
18142;SDS011;9197;50.930;3.140;2023-04-07T06:50:26;16.27;;;9.47;;
18142;SDS011;9197;50.930;3.140;2023-04-07T06:52:53;9.10;;;7.80;;
18142;SDS011;9197;50.930;3.140;2023-04-07T06:55:20;10.83;;;8.10;;
18142;SDS011;9197;50.930;3.140;2023-04-07T06:57:49;14.90;;;8.97;;
18142;SDS011;9197;50.930;3.140;2023-04-07T07:00:16;12.30;;;8.77;;
18142;SDS011;9197;50.930;3.140;2023-04-07T07:02:44;11.60;;;8.17;;
18142;SDS011;9197;50.930;3.140;2023-04-07T07:05:11;9.90;;;7.87;;
18142;SDS011;9197;50.930;3.140;2023-04-07T07:07:38;12.93;;;8.90;;
18142;SDS011;9197;50.930;3.140;2023-04-07T07:10:07;16.77;;;8.77;;
18142;SDS011;9197;50.930;3.140;2023-04-07T07:12:35;11.03;;;8.20;;
18142;SDS011;9197;50.930;3.140;2023-04-07T07:15:04;9.27;;;7.13;;
18142;SDS011;9197;50.930;3.140;2023-04-07T07:17:31;11.63;;;7.83;;
18142;SDS011;9197;50.930;3.140;2023-04-07T07:20:00;11.80;;;9.37;;
18142;SDS011;9197;50.930;3.140;2023-04-07T07:22:27;9.97;;;7.73;;
18142;SDS011;9197;50.930;3.140;2023-04-07T07:24:54;12.87;;;9.30;;
18142;SDS011;9197;50.930;3.140;2023-04-07T07:27:21;13.77;;;8.00;;
18142;SDS011;9197;50.930;3.140;2023-04-07T07:29:48;10.80;;;6.80;;
18142;SDS011;9197;50.930;3.140;2023-04-07T07:32:17;9.87;;;7.53;;
18142;SDS011;9197;50.930;3.140;2023-04-07T07:34:44;8.73;;;7.77;;
18142;SDS011;9197;50.930;3.140;2023-04-07T07:37:12;14.53;;;8.17;;
18142;SDS011;9197;50.930;3.140;2023-04-07T07:39:39;10.00;;;6.53;;
18142;SDS011;9197;50.930;3.140;2023-04-07T07:42:06;10.27;;;8.03;;
18142;SDS011;9197;50.930;3.140;2023-04-07T07:44:33;10.27;;;6.90;;
18142;SDS011;9197;50.930;3.140;2023-04-07T07:47:00;10.83;;;7.57;;
18142;SDS011;9197;50.930;3.140;2023-04-07T07:49:29;11.70;;;7.43;;
18142;SDS011;9197;50.930;3.140;2023-04-07T07:51:56;11.37;;;7.60;;
18142;SDS011;9197;50.930;3.140;2023-04-07T07:54:24;9.93;;;7.10;;
18142;SDS011;9197;50.930;3.140;2023-04-07T07:56:51;13.80;;;8.17;;
18142;SDS011;9197;50.930;3.140;2023-04-07T07:59:18;9.17;;;7.70;;
18142;SDS011;9197;50.930;3.140;2023-04-07T08:01:45;8.73;;;6.93;;
18142;SDS011;9197;50.930;3.140;2023-04-07T08:04:13;10.80;;;6.80;;
18142;SDS011;9197;50.930;3.140;2023-04-07T08:06:41;9.33;;;6.30;;
18142;SDS011;9197;50.930;3.140;2023-04-07T08:09:08;11.67;;;6.37;;
18142;SDS011;9197;50.930;3.140;2023-04-07T08:11:37;9.57;;;6.07;;
18142;SDS011;9197;50.930;3.140;2023-04-07T08:14:04;12.07;;;6.70;;
18142;SDS011;9197;50.930;3.140;2023-04-07T08:16:31;13.63;;;9.17;;
18142;SDS011;9197;50.930;3.140;2023-04-07T08:18:58;21.30;;;14.07;;
18142;SDS011;9197;50.930;3.140;2023-04-07T08:21:25;8.83;;;6.10;;
18142;SDS011;9197;50.930;3.140;2023-04-07T08:23:54;7.93;;;4.57;;
18142;SDS011;9197;50.930;3.140;2023-04-07T08:26:21;9.27;;;3.77;;
18142;SDS011;9197;50.930;3.140;2023-04-07T08:28:49;7.13;;;3.83;;
18142;SDS011;9197;50.930;3.140;2023-04-07T08:31:16;8.83;;;3.80;;
18142;SDS011;9197;50.930;3.140;2023-04-07T08:33:43;5.40;;;4.33;;
18142;SDS011;9197;50.930;3.140;2023-04-07T08:36:11;4.53;;;3.70;;
18142;SDS011;9197;50.930;3.140;2023-04-07T08:38:38;6.60;;;4.23;;
18142;SDS011;9197;50.930;3.140;2023-04-07T08:41:09;4.43;;;3.30;;
18142;SDS011;9197;50.930;3.140;2023-04-07T08:43:37;6.37;;;4.20;;
18142;SDS011;9197;50.930;3.140;2023-04-07T08:46:05;4.93;;;3.73;;
18142;SDS011;9197;50.930;3.140;2023-04-07T08:48:36;6.23;;;3.03;;
18142;SDS011;9197;50.930;3.140;2023-04-07T08:51:04;4.37;;;3.40;;
18142;SDS011;9197;50.930;3.140;2023-04-07T08:53:35;4.27;;;2.77;;
18142;SDS011;9197;50.930;3.140;2023-04-07T08:56:04;3.97;;;3.00;;
18142;SDS011;9197;50.930;3.140;2023-04-07T08:58:32;4.33;;;3.20;;
18142;SDS011;9197;50.930;3.140;2023-04-07T09:01:01;5.67;;;2.83;;
18142;SDS011;9197;50.930;3.140;2023-04-07T09:03:30;5.80;;;2.80;;
18142;SDS011;9197;50.930;3.140;2023-04-07T09:05:58;8.67;;;3.10;;
18142;SDS011;9197;50.930;3.140;2023-04-07T09:08:26;5.50;;;2.70;;
18142;SDS011;9197;50.930;3.140;2023-04-07T09:10:53;4.67;;;2.43;;
18142;SDS011;9197;50.930;3.140;2023-04-07T09:13:20;2.83;;;2.03;;
18142;SDS011;9197;50.930;3.140;2023-04-07T09:15:49;4.30;;;2.80;;
18142;SDS011;9197;50.930;3.140;2023-04-07T09:18:16;6.47;;;2.00;;
18142;SDS011;9197;50.930;3.140;2023-04-07T09:20:53;5.63;;;2.37;;
18142;SDS011;9197;50.930;3.140;2023-04-07T09:23:26;4.90;;;1.87;;
18142;SDS011;9197;50.930;3.140;2023-04-07T09:25:53;5.87;;;1.37;;
18142;SDS011;9197;50.930;3.140;2023-04-07T09:28:21;4.70;;;1.73;;
18142;SDS011;9197;50.930;3.140;2023-04-07T09:30:52;3.27;;;1.70;;
18142;SDS011;9197;50.930;3.140;2023-04-07T09:33:25;6.17;;;1.83;;
18142;SDS011;9197;50.930;3.140;2023-04-07T09:35:53;5.47;;;1.73;;
18142;SDS011;9197;50.930;3.140;2023-04-07T09:38:21;6.27;;;2.13;;
18142;SDS011;9197;50.930;3.140;2023-04-07T09:40:48;15.40;;;6.43;;
18142;SDS011;9197;50.930;3.140;2023-04-07T09:43:15;9.97;;;5.67;;
18142;SDS011;9197;50.930;3.140;2023-04-07T09:45:43;5.83;;;2.77;;
18142;SDS011;9197;50.930;3.140;2023-04-07T09:48:18;7.90;;;3.47;;
18142;SDS011;9197;50.930;3.140;2023-04-07T09:50:46;6.57;;;2.67;;
18142;SDS011;9197;50.930;3.140;2023-04-07T09:53:15;4.93;;;2.10;;
18142;SDS011;9197;50.930;3.140;2023-04-07T09:55:43;3.27;;;2.23;;
18142;SDS011;9197;50.930;3.140;2023-04-07T09:58:11;7.20;;;2.30;;
18142;SDS011;9197;50.930;3.140;2023-04-07T10:00:39;7.27;;;2.17;;
18142;SDS011;9197;50.930;3.140;2023-04-07T10:03:07;5.90;;;2.20;;
18142;SDS011;9197;50.930;3.140;2023-04-07T10:05:36;6.93;;;2.00;;
18142;SDS011;9197;50.930;3.140;2023-04-07T10:08:04;5.13;;;1.60;;
18142;SDS011;9197;50.930;3.140;2023-04-07T10:10:32;2.70;;;1.30;;
18142;SDS011;9197;50.930;3.140;2023-04-07T10:13:00;3.70;;;1.80;;
18142;SDS011;9197;50.930;3.140;2023-04-07T10:15:30;4.93;;;1.57;;
18142;SDS011;9197;50.930;3.140;2023-04-07T10:17:58;5.17;;;1.67;;
18142;SDS011;9197;50.930;3.140;2023-04-07T10:20:25;4.07;;;2.10;;
18142;SDS011;9197;50.930;3.140;2023-04-07T10:22:55;3.40;;;1.57;;
18142;SDS011;9197;50.930;3.140;2023-04-07T10:25:27;3.43;;;1.40;;
18142;SDS011;9197;50.930;3.140;2023-04-07T10:27:57;5.03;;;1.80;;
18142;SDS011;9197;50.930;3.140;2023-04-07T10:30:25;2.80;;;1.10;;
18142;SDS011;9197;50.930;3.140;2023-04-07T10:32:54;3.17;;;1.15;;
18142;SDS011;9197;50.930;3.140;2023-04-07T10:35:22;3.28;;;1.10;;
18142;SDS011;9197;50.930;3.140;2023-04-07T10:40:37;3.00;;;1.27;;
18142;SDS011;9197;50.930;3.140;2023-04-07T10:43:04;2.53;;;1.03;;
18142;SDS011;9197;50.930;3.140;2023-04-07T10:45:52;2.97;;;1.40;;
18142;SDS011;9197;50.930;3.140;2023-04-07T10:48:20;5.30;;;1.13;;
18142;SDS011;9197;50.930;3.140;2023-04-07T10:53:30;2.33;;;1.20;;
18142;SDS011;9197;50.930;3.140;2023-04-07T10:55:59;5.70;;;1.40;;
18142;SDS011;9197;50.930;3.140;2023-04-07T10:58:26;4.17;;;1.10;;
18142;SDS011;9197;50.930;3.140;2023-04-07T11:01:16;6.37;;;1.47;;
18142;SDS011;9197;50.930;3.140;2023-04-07T11:03:54;3.23;;;1.57;;
18142;SDS011;9197;50.930;3.140;2023-04-07T11:06:22;2.67;;;1.83;;
18142;SDS011;9197;50.930;3.140;2023-04-07T11:08:50;3.53;;;1.23;;
18142;SDS011;9197;50.930;3.140;2023-04-07T11:11:20;4.73;;;1.30;;
18142;SDS011;9197;50.930;3.140;2023-04-07T11:14:01;4.17;;;1.13;;
18142;SDS011;9197;50.930;3.140;2023-04-07T11:16:38;3.97;;;1.40;;
18142;SDS011;9197;50.930;3.140;2023-04-07T11:19:05;4.70;;;2.03;;
18142;SDS011;9197;50.930;3.140;2023-04-07T11:21:32;2.57;;;1.00;;
18142;SDS011;9197;50.930;3.140;2023-04-07T11:24:00;5.27;;;1.57;;
18142;SDS011;9197;50.930;3.140;2023-04-07T11:26:29;2.80;;;1.90;;
18142;SDS011;9197;50.930;3.140;2023-04-07T11:29:02;2.40;;;1.27;;
18142;SDS011;9197;50.930;3.140;2023-04-07T11:31:30;2.97;;;1.20;;
18142;SDS011;9197;50.930;3.140;2023-04-07T11:33:58;4.57;;;1.07;;
18142;SDS011;9197;50.930;3.140;2023-04-07T11:36:26;4.07;;;1.30;;
18142;SDS011;9197;50.930;3.140;2023-04-07T11:38:53;4.93;;;1.60;;
18142;SDS011;9197;50.930;3.140;2023-04-07T11:41:21;3.83;;;1.33;;
18142;SDS011;9197;50.930;3.140;2023-04-07T11:44:03;4.90;;;1.70;;
18142;SDS011;9197;50.930;3.140;2023-04-07T11:46:31;6.00;;;1.87;;
18142;SDS011;9197;50.930;3.140;2023-04-07T11:49:07;4.23;;;1.60;;
18142;SDS011;9197;50.930;3.140;2023-04-07T11:51:34;4.43;;;1.60;;
18142;SDS011;9197;50.930;3.140;2023-04-07T11:54:02;4.77;;;1.33;;
18142;SDS011;9197;50.930;3.140;2023-04-07T11:56:29;3.50;;;1.50;;
18142;SDS011;9197;50.930;3.140;2023-04-07T11:58:56;5.60;;;1.30;;
18142;SDS011;9197;50.930;3.140;2023-04-07T12:01:25;2.40;;;1.17;;
18142;SDS011;9197;50.930;3.140;2023-04-07T12:04:04;8.73;;;2.10;;
18142;SDS011;9197;50.930;3.140;2023-04-07T12:06:32;6.07;;;1.00;;
18142;SDS011;9197;50.930;3.140;2023-04-07T12:09:02;5.57;;;1.50;;
18142;SDS011;9197;50.930;3.140;2023-04-07T12:11:30;4.83;;;1.73;;
18142;SDS011;9197;50.930;3.140;2023-04-07T12:13:58;4.80;;;3.07;;
18142;SDS011;9197;50.930;3.140;2023-04-07T12:16:26;2.43;;;1.20;;
18142;SDS011;9197;50.930;3.140;2023-04-07T12:18:54;4.40;;;1.33;;
18142;SDS011;9197;50.930;3.140;2023-04-07T12:21:21;8.37;;;1.97;;
18142;SDS011;9197;50.930;3.140;2023-04-07T12:23:49;2.97;;;1.73;;
18142;SDS011;9197;50.930;3.140;2023-04-07T12:26:17;6.57;;;1.53;;
18142;SDS011;9197;50.930;3.140;2023-04-07T12:28:44;5.33;;;1.53;;
18142;SDS011;9197;50.930;3.140;2023-04-07T12:31:11;6.93;;;2.03;;
18142;SDS011;9197;50.930;3.140;2023-04-07T12:33:40;4.77;;;1.80;;
18142;SDS011;9197;50.930;3.140;2023-04-07T12:36:07;8.43;;;2.23;;
18142;SDS011;9197;50.930;3.140;2023-04-07T12:38:34;7.67;;;2.40;;
18142;SDS011;9197;50.930;3.140;2023-04-07T12:41:01;4.77;;;1.77;;
18142;SDS011;9197;50.930;3.140;2023-04-07T12:43:28;2.73;;;0.90;;
18142;SDS011;9197;50.930;3.140;2023-04-07T12:45:55;5.47;;;1.90;;
18142;SDS011;9197;50.930;3.140;2023-04-07T12:48:23;6.10;;;1.70;;
18142;SDS011;9197;50.930;3.140;2023-04-07T12:50:53;5.20;;;1.33;;
18142;SDS011;9197;50.930;3.140;2023-04-07T12:53:20;6.67;;;1.93;;
18142;SDS011;9197;50.930;3.140;2023-04-07T12:55:47;5.13;;;1.50;;
18142;SDS011;9197;50.930;3.140;2023-04-07T12:58:14;3.10;;;0.93;;
18142;SDS011;9197;50.930;3.140;2023-04-07T13:00:42;5.03;;;1.70;;
18142;SDS011;9197;50.930;3.140;2023-04-07T13:03:10;5.07;;;1.70;;
18142;SDS011;9197;50.930;3.140;2023-04-07T13:05:38;5.03;;;1.70;;
18142;SDS011;9197;50.930;3.140;2023-04-07T13:08:07;5.53;;;1.50;;
18142;SDS011;9197;50.930;3.140;2023-04-07T13:10:34;3.13;;;1.40;;
18142;SDS011;9197;50.930;3.140;2023-04-07T13:13:01;4.17;;;1.30;;
18142;SDS011;9197;50.930;3.140;2023-04-07T13:15:29;6.00;;;1.90;;
18142;SDS011;9197;50.930;3.140;2023-04-07T13:17:56;5.63;;;1.57;;
18142;SDS011;9197;50.930;3.140;2023-04-07T13:20:23;6.23;;;1.70;;
18142;SDS011;9197;50.930;3.140;2023-04-07T13:22:52;5.07;;;1.20;;
18142;SDS011;9197;50.930;3.140;2023-04-07T13:25:20;5.83;;;1.67;;
18142;SDS011;9197;50.930;3.140;2023-04-07T13:27:48;5.80;;;1.40;;
18142;SDS011;9197;50.930;3.140;2023-04-07T13:30:15;7.23;;;1.60;;
18142;SDS011;9197;50.930;3.140;2023-04-07T13:32:42;5.00;;;1.43;;
18142;SDS011;9197;50.930;3.140;2023-04-07T13:35:14;5.00;;;1.30;;
18142;SDS011;9197;50.930;3.140;2023-04-07T13:37:41;4.10;;;1.80;;
18142;SDS011;9197;50.930;3.140;2023-04-07T13:40:09;6.43;;;2.47;;
18142;SDS011;9197;50.930;3.140;2023-04-07T13:42:39;7.17;;;2.13;;
18142;SDS011;9197;50.930;3.140;2023-04-07T13:45:06;3.30;;;1.17;;
18142;SDS011;9197;50.930;3.140;2023-04-07T13:47:33;8.40;;;1.90;;
18142;SDS011;9197;50.930;3.140;2023-04-07T13:50:01;9.07;;;1.83;;
18142;SDS011;9197;50.930;3.140;2023-04-07T13:52:29;6.30;;;1.90;;
18142;SDS011;9197;50.930;3.140;2023-04-07T13:54:59;2.10;;;1.53;;
18142;SDS011;9197;50.930;3.140;2023-04-07T13:57:27;6.93;;;2.77;;
18142;SDS011;9197;50.930;3.140;2023-04-07T13:59:56;6.10;;;1.63;;
18142;SDS011;9197;50.930;3.140;2023-04-07T14:02:24;3.17;;;1.80;;
18142;SDS011;9197;50.930;3.140;2023-04-07T14:04:54;9.23;;;2.10;;
18142;SDS011;9197;50.930;3.140;2023-04-07T14:07:22;6.20;;;2.47;;
18142;SDS011;9197;50.930;3.140;2023-04-07T14:09:50;5.90;;;1.80;;
18142;SDS011;9197;50.930;3.140;2023-04-07T14:12:18;6.30;;;3.07;;
18142;SDS011;9197;50.930;3.140;2023-04-07T14:14:47;8.57;;;3.17;;
18142;SDS011;9197;50.930;3.140;2023-04-07T14:17:17;7.47;;;2.53;;
18142;SDS011;9197;50.930;3.140;2023-04-07T14:19:45;10.50;;;3.80;;
18142;SDS011;9197;50.930;3.140;2023-04-07T14:22:12;4.10;;;1.67;;
18142;SDS011;9197;50.930;3.140;2023-04-07T14:24:39;2.63;;;1.20;;
18142;SDS011;9197;50.930;3.140;2023-04-07T14:27:06;7.13;;;2.47;;
18142;SDS011;9197;50.930;3.140;2023-04-07T14:29:34;3.30;;;1.73;;
18142;SDS011;9197;50.930;3.140;2023-04-07T14:32:01;4.83;;;1.80;;
18142;SDS011;9197;50.930;3.140;2023-04-07T14:34:29;5.60;;;1.77;;
18142;SDS011;9197;50.930;3.140;2023-04-07T14:36:57;5.13;;;3.30;;
18142;SDS011;9197;50.930;3.140;2023-04-07T14:39:24;3.93;;;2.10;;
18142;SDS011;9197;50.930;3.140;2023-04-07T14:41:52;5.00;;;2.10;;
18142;SDS011;9197;50.930;3.140;2023-04-07T14:44:19;5.00;;;1.60;;
18142;SDS011;9197;50.930;3.140;2023-04-07T14:46:46;3.67;;;1.93;;
18142;SDS011;9197;50.930;3.140;2023-04-07T14:49:14;7.43;;;1.97;;
18142;SDS011;9197;50.930;3.140;2023-04-07T14:51:42;4.20;;;1.80;;
18142;SDS011;9197;50.930;3.140;2023-04-07T14:54:10;3.97;;;1.73;;
18142;SDS011;9197;50.930;3.140;2023-04-07T14:56:37;4.07;;;1.63;;
18142;SDS011;9197;50.930;3.140;2023-04-07T14:59:05;6.77;;;1.80;;
18142;SDS011;9197;50.930;3.140;2023-04-07T15:01:32;1.93;;;1.40;;
18142;SDS011;9197;50.930;3.140;2023-04-07T15:04:00;7.53;;;1.60;;